| time (UTC) | temp C | wind direction | speed KPH | gust KPH | rain 1hr cm | rain 24hr cm | rain mn cm | humidity % | barometer mb |
| 20260507000003 | 19 | 92 | 0.0 | 3.2 | 0.00 | 0.20 | 0.20 | 82 | 1008.7 |
| 20260506235403 | 19 | 103 | 0.0 | 4.8 | 0.00 | 0.20 | 0.20 | 82 | 1008.6 |
| 20260506234503 | 19 | 115 | 0.0 | 4.8 | 0.00 | 0.20 | 0.20 | 82 | 1008.7 |
| 20260506233818 | 19 | 108 | 1.6 | 4.8 | 0.00 | 0.20 | 0.20 | 81 | 1008.6 |
| 20260506232703 | 19 | 109 | 0.0 | 3.2 | 0.00 | 0.20 | 0.20 | 81 | 1008.7 |
| 20260506231803 | 20 | 109 | 0.0 | 4.8 | 0.00 | 0.20 | 0.20 | 80 | 1008.5 |
| 20260506231116 | 20 | 126 | 0.0 | 6.4 | 0.00 | 0.20 | 0.20 | 80 | 1008.5 |
| 20260506230003 | 20 | 130 | 1.6 | 6.4 | 0.00 | 0.20 | 0.20 | 78 | 1008.5 |
| 20260506225619 | 20 | 98 | 1.6 | 8.0 | 0.00 | 0.20 | 0.20 | 78 | 1008.6 |
| 20260506224503 | 20 | 122 | 1.6 | 6.4 | 0.00 | 0.20 | 0.20 | 78 | 1008.4 |
| 20260506223817 | 20 | 114 | 1.6 | 8.0 | 0.00 | 0.20 | 0.20 | 77 | 1008.4 |
| 20260506222703 | 20 | 112 | 1.6 | 4.8 | 0.00 | 0.20 | 0.20 | 78 | 1008.6 |
| 20260506221803 | 20 | 97 | 1.6 | 6.4 | 0.00 | 0.20 | 0.20 | 78 | 1008.4 |
| 20260506220903 | 20 | 111 | 1.6 | 9.7 | 0.00 | 0.20 | 0.20 | 77 | 1008.2 |
| 20260506220003 | 20 | 97 | 1.6 | 12.9 | 0.00 | 0.20 | 0.20 | 77 | 1008.4 |
| 20260506215403 | 20 | 86 | 1.6 | 12.9 | 0.00 | 0.20 | 0.20 | 78 | 1008.4 |
| 20260506214503 | 20 | 107 | 1.6 | 9.7 | 0.00 | 0.20 | 0.20 | 78 | 1008.3 |
| 20260506213603 | 20 | 119 | 1.6 | 9.7 | 0.00 | 0.20 | 0.20 | 77 | 1008.1 |
| 20260506212703 | 20 | 112 | 1.6 | 8.0 | 0.00 | 0.20 | 0.20 | 76 | 1008.2 |
| 20260506211803 | 20 | 127 | 3.2 | 9.7 | 0.00 | 0.20 | 0.20 | 76 | 1008.1 |
| 20260506210903 | 20 | 119 | 3.2 | 9.7 | 0.00 | 0.20 | 0.20 | 76 | 1007.9 |
| 20260506210218 | 20 | 115 | 3.2 | 11.3 | 0.00 | 0.20 | 0.20 | 78 | 1008.0 |
| 20260506205403 | 20 | 151 | 3.2 | 12.9 | 0.00 | 0.20 | 0.20 | 77 | 1008.0 |
| 20260506204717 | 20 | 131 | 3.2 | 9.7 | 0.00 | 0.20 | 0.20 | 79 | 1008.2 |
| 20260506203603 | 20 | 109 | 3.2 | 12.9 | 0.00 | 0.20 | 0.20 | 80 | 1008.1 |
| 20260506202703 | 20 | 96 | 3.2 | 9.7 | 0.00 | 0.20 | 0.20 | 80 | 1007.9 |
| 20260506201803 | 19 | 70 | 3.2 | 9.7 | 0.00 | 0.20 | 0.20 | 80 | 1008.0 |
| 20260506201119 | 19 | 110 | 3.2 | 9.7 | 0.00 | 0.20 | 0.20 | 82 | 1007.9 |
| 20260506200003 | 18 | 131 | 1.6 | 9.7 | 0.00 | 0.20 | 0.20 | 82 | 1008.0 |
| 20260506195618 | 18 | 141 | 1.6 | 6.4 | 0.00 | 0.20 | 0.20 | 82 | 1008.1 |
| 20260506194503 | 18 | 79 | 1.6 | 6.4 | 0.00 | 0.20 | 0.20 | 83 | 1008.3 |
| 20260506193603 | 18 | 103 | 3.2 | 8.0 | 0.00 | 0.20 | 0.20 | 83 | 1008.4 |
| 20260506192703 | 18 | 119 | 3.2 | 14.5 | 0.00 | 0.20 | 0.20 | 82 | 1008.4 |
| 20260506191803 | 18 | 120 | 3.2 | 12.9 | 0.00 | 0.20 | 0.20 | 84 | 1008.4 |
| 20260506191118 | 17 | 108 | 3.2 | 12.9 | 0.00 | 0.20 | 0.20 | 84 | 1008.6 |
| 20260506190003 | 17 | 75 | 3.2 | 8.0 | 0.00 | 0.20 | 0.20 | 85 | 1008.8 |
| 20260506185403 | 17 | 80 | 1.6 | 8.0 | 0.00 | 0.20 | 0.20 | 85 | 1008.7 |
| 20260506184717 | 17 | 108 | 1.6 | 9.7 | 0.00 | 0.20 | 0.20 | 85 | 1008.7 |
| 20260506183603 | 17 | 129 | 3.2 | 9.7 | 0.00 | 0.20 | 0.20 | 85 | 1008.8 |
| 20260506182703 | 17 | 106 | 3.2 | 12.9 | 0.00 | 0.20 | 0.20 | 86 | 1009.0 |
| 20260506181803 | 17 | 125 | 3.2 | 12.9 | 0.00 | 0.20 | 0.20 | 86 | 1009.1 |
| 20260506180903 | 17 | 128 | 1.6 | 11.3 | 0.00 | 0.20 | 0.20 | 86 | 1009.1 |
| 20260506180004 | 17 | 115 | 3.2 | 8.0 | 0.00 | 0.20 | 0.20 | 87 | 1009.1 |
| 20260506175403 | 17 | 134 | 3.2 | 16.1 | 0.00 | 0.20 | 0.20 | 87 | 1009.2 |
| 20260506174503 | 17 | 128 | 3.2 | 14.5 | 0.00 | 0.20 | 0.20 | 87 | 1009.3 |
| 20260506173603 | 17 | 127 | 3.2 | 8.0 | 0.00 | 0.20 | 0.20 | 86 | 1009.4 |
| 20260506172703 | 17 | 119 | 3.2 | 12.9 | 0.00 | 0.20 | 0.20 | 87 | 1009.3 |
| 20260506171803 | 16 | 123 | 3.2 | 11.3 | 0.03 | 0.20 | 0.20 | 87 | 1009.2 |
| 20260506170903 | 16 | 121 | 3.2 | 20.9 | 0.05 | 0.20 | 0.20 | 87 | 1009.5 |
| 20260506170003 | 16 | 136 | 4.8 | 17.7 | 0.08 | 0.20 | 0.20 | 87 | 1009.5 |
| 20260506165616 | 16 | 143 | 3.2 | 11.3 | 0.08 | 0.20 | 0.20 | 88 | 1009.4 |
| 20260506164503 | 17 | 145 | 3.2 | 9.7 | 0.13 | 0.20 | 0.20 | 87 | 1009.6 |
| 20260506163603 | 17 | 155 | 3.2 | 12.9 | 0.13 | 0.20 | 0.20 | 87 | 1009.5 |
| 20260506162703 | 17 | 180 | 1.6 | 9.7 | 0.15 | 0.20 | 0.20 | 88 | 1009.7 |
| 20260506161803 | 16 | 166 | 3.2 | 8.0 | 0.13 | 0.18 | 0.18 | 87 | 1009.6 |
| 20260506160903 | 16 | 130 | 1.6 | 8.0 | 0.13 | 0.15 | 0.15 | 88 | 1009.8 |
| 20260506160003 | 16 | 110 | 3.2 | 12.9 | 0.13 | 0.13 | 0.13 | 87 | 1010.3 |
| 20260506155403 | 17 | 111 | 1.6 | 12.9 | 0.10 | 0.10 | 0.13 | 86 | 1010.6 |
| 20260506154503 | 17 | 116 | 3.2 | 14.5 | 0.08 | 0.08 | 0.08 | 85 | 1010.6 |
| 20260506153603 | 17 | 133 | 3.2 | 14.5 | 0.08 | 0.08 | 0.08 | 84 | 1010.5 |
| 20260506152703 | 17 | 103 | 1.6 | 8.0 | 0.05 | 0.05 | 0.05 | 84 | 1010.6 |
| 20260506151803 | 17 | 108 | 3.2 | 16.1 | 0.05 | 0.05 | 0.05 | 81 | 1010.4 |
| 20260506150903 | 17 | 110 | 3.2 | 22.5 | 0.03 | 0.03 | 0.03 | 79 | 1010.3 |
| 20260506150003 | 18 | 0 | 0.0 | 0.0 | 0.00 | 0.00 | 0.00 | 78 | 1010.1 |
| 20260506145616 | 18 | 0 | 0.0 | 0.0 | 0.00 | 0.00 | 0.00 | 77 | 1010.3 |
| 20260506144503 | 18 | 0 | 0.0 | 0.0 | 0.00 | 0.00 | 0.00 | 75 | 1010.5 |
| 20260506143603 | 18 | 0 | 0.0 | 0.0 | 0.00 | 0.00 | 0.00 | 76 | 1010.4 |
| 20260506142918 | 18 | 0 | 0.0 | 0.0 | 0.00 | 0.00 | 0.00 | 73 | 1010.4 |
| 20260506142017 | 19 | 0 | 0.0 | 0.0 | 0.00 | 0.00 | 0.00 | 71 | 1010.5 |
| 20260506140903 | 20 | 0 | 0.0 | 0.0 | 0.00 | 0.00 | 0.00 | 69 | 1010.4 |
| 20260506140003 | 20 | 0 | 0.0 | 0.0 | 0.00 | 0.00 | 0.00 | 67 | 1010.3 |
| 20260506135403 | 20 | 0 | 0.0 | 0.0 | 0.00 | 0.00 | 0.00 | 68 | 1010.5 |
| 20260506134503 | 20 | 0 | 0.0 | 0.0 | 0.00 | 0.00 | 0.00 | 69 | 1010.3 |
| 20260506133818 | 20 | 0 | 0.0 | 0.0 | 0.00 | 0.00 | 0.00 | 70 | 1010.2 |
| 20260506132917 | 18 | 0 | 0.0 | 0.0 | 0.00 | 0.00 | 0.00 | 72 | 1010.3 |
| 20260506131803 | 18 | 126 | 0.0 | 1.6 | 0.00 | 0.00 | 0.00 | 72 | 1010.3 |
| 20260506130903 | 18 | 145 | 3.2 | 12.9 | 0.00 | 0.00 | 0.00 | 72 | 1010.4 |
| 20260506130003 | 18 | 127 | 4.8 | 25.7 | 0.00 | 0.00 | 0.00 | 71 | 1010.6 |
| 20260506125403 | 19 | 137 | 4.8 | 22.5 | 0.00 | 0.00 | 0.00 | 72 | 1010.7 |
| 20260506124503 | 19 | 145 | 4.8 | 16.1 | 0.00 | 0.00 | 0.00 | 72 | 1010.7 |
| 20260506123603 | 19 | 138 | 6.4 | 19.3 | 0.00 | 0.00 | 0.00 | 72 | 1010.4 |
| 20260506122703 | 18 | 126 | 3.2 | 12.9 | 0.00 | 0.00 | 0.00 | 74 | 1010.6 |
| 20260506122016 | 18 | 134 | 3.2 | 12.9 | 0.00 | 0.00 | 0.00 | 74 | 1010.5 |
| 20260506121116 | 18 | 137 | 4.8 | 17.7 | 0.00 | 0.00 | 0.00 | 74 | 1010.4 |
| 20260506120219 | 18 | 137 | 4.8 | 14.5 | 0.00 | 0.00 | 0.00 | 76 | 1010.4 |
| 20260506115403 | 18 | 133 | 4.8 | 16.1 | 0.00 | 0.00 | 0.00 | 77 | 1010.3 |
| 20260506114718 | 18 | 132 | 4.8 | 16.1 | 0.00 | 0.00 | 0.00 | 77 | 1010.3 |
| 20260506113603 | 17 | 137 | 6.4 | 19.3 | 0.00 | 0.00 | 0.00 | 78 | 1010.2 |
| 20260506112917 | 17 | 138 | 4.8 | 19.3 | 0.00 | 0.00 | 0.00 | 78 | 1010.3 |
| 20260506111803 | 17 | 123 | 4.8 | 16.1 | 0.00 | 0.00 | 0.00 | 79 | 1010.4 |
| 20260506110903 | 17 | 128 | 4.8 | 14.5 | 0.00 | 0.00 | 0.00 | 79 | 1010.2 |
| 20260506110003 | 17 | 127 | 3.2 | 12.9 | 0.00 | 0.00 | 0.00 | 80 | 1010.2 |
| 20260506105403 | 17 | 135 | 4.8 | 24.1 | 0.00 | 0.00 | 0.00 | 80 | 1010.2 |
| 20260506104503 | 17 | 133 | 3.2 | 11.3 | 0.00 | 0.00 | 0.00 | 80 | 1010.3 |
| 20260506103603 | 17 | 131 | 3.2 | 16.1 | 0.00 | 0.00 | 0.00 | 80 | 1010.2 |
| 20260506102703 | 17 | 141 | 3.2 | 9.7 | 0.00 | 0.00 | 0.00 | 81 | 1010.2 |
| 20260506101803 | 17 | 145 | 3.2 | 14.5 | 0.00 | 0.00 | 0.00 | 81 | 1010.2 |
| 20260506100903 | 17 | 140 | 3.2 | 9.7 | 0.00 | 0.00 | 0.00 | 81 | 1010.2 |
| 20260506100003 | 17 | 150 | 3.2 | 9.7 | 0.00 | 0.00 | 0.00 | 81 | 1010.1 |
| 20260506095403 | 17 | 140 | 3.2 | 12.9 | 0.00 | 0.00 | 0.00 | 81 | 1010.2 |
| 20260506094503 | 17 | 131 | 3.2 | 11.3 | 0.00 | 0.00 | 0.00 | 81 | 1010.3 |
| 20260506093817 | 17 | 120 | 1.6 | 9.7 | 0.00 | 0.00 | 0.00 | 81 | 1010.3 |
| 20260506092916 | 17 | 132 | 1.6 | 9.7 | 0.00 | 0.00 | 0.00 | 80 | 1010.3 |
| 20260506091803 | 17 | 129 | 3.2 | 11.3 | 0.00 | 0.00 | 0.00 | 80 | 1010.2 |
| 20260506090903 | 17 | 124 | 3.2 | 9.7 | 0.00 | 0.00 | 0.00 | 79 | 1010.2 |
| 20260506090003 | 17 | 123 | 3.2 | 11.3 | 0.00 | 0.00 | 0.00 | 79 | 1010.3 |
| 20260506085618 | 17 | 135 | 3.2 | 11.3 | 0.00 | 0.00 | 0.00 | 79 | 1010.3 |
| 20260506084503 | 17 | 132 | 3.2 | 12.9 | 0.00 | 0.00 | 0.00 | 78 | 1010.3 |
| 20260506083603 | 17 | 149 | 3.2 | 14.5 | 0.00 | 0.00 | 0.00 | 78 | 1010.2 |
| 20260506082703 | 18 | 147 | 3.2 | 11.3 | 0.00 | 0.00 | 0.00 | 78 | 1010.2 |
| 20260506081803 | 18 | 129 | 3.2 | 9.7 | 0.00 | 0.00 | 0.00 | 78 | 1010.4 |
| 20260506081118 | 18 | 137 | 3.2 | 12.9 | 0.00 | 0.00 | 0.00 | 78 | 1010.5 |
| 20260506072703 | 18 | 119 | 1.6 | 9.7 | 0.00 | 0.00 | 0.00 | 75 | 1010.5 |
| 20260506071803 | 18 | 116 | 3.2 | 11.3 | 0.00 | 0.00 | 0.00 | 75 | 1010.5 |
| 20260506070903 | 18 | 131 | 3.2 | 12.9 | 0.00 | 0.00 | 0.00 | 75 | 1010.5 |
| 20260506061803 | 18 | 132 | 3.2 | 14.5 | 0.00 | 0.00 | 0.00 | 74 | 1010.8 |
| 20260506060903 | 18 | 127 | 1.6 | 14.5 | 0.00 | 0.00 | 0.00 | 74 | 1010.7 |
| 20260506050903 | 18 | 125 | 1.6 | 8.0 | 0.00 | 0.00 | 0.00 | 73 | 1011.2 |
| 20260506044503 | 18 | 121 | 1.6 | 9.7 | 0.00 | 0.00 | 0.00 | 72 | 1011.5 |
| 20260506043603 | 18 | 135 | 1.6 | 9.7 | 0.00 | 0.00 | 0.00 | 72 | 1011.5 |
| 20260506042703 | 18 | 96 | 0.0 | 9.7 | 0.00 | 0.00 | 0.00 | 72 | 1011.4 |
| 20260506041803 | 18 | 130 | 1.6 | 6.4 | 0.00 | 0.00 | 0.00 | 71 | 1011.5 |
| 20260506040903 | 18 | 138 | 1.6 | 6.4 | 0.00 | 0.00 | 0.00 | 70 | 1011.5 |
| 20260506040003 | 18 | 132 | 1.6 | 6.4 | 0.00 | 0.00 | 0.00 | 70 | 1011.4 |
| 20260506035403 | 19 | 128 | 1.6 | 11.3 | 0.00 | 0.00 | 0.00 | 69 | 1011.4 |
| 20260506034503 | 19 | 135 | 1.6 | 9.7 | 0.00 | 0.00 | 0.00 | 68 | 1011.3 |
| 20260506033818 | 19 | 128 | 3.2 | 11.3 | 0.00 | 0.00 | 0.00 | 68 | 1011.4 |
| 20260506032703 | 19 | 149 | 3.2 | 14.5 | 0.00 | 0.00 | 0.00 | 67 | 1011.2 |
| 20260506032017 | 19 | 159 | 3.2 | 14.5 | 0.00 | 0.00 | 0.00 | 67 | 1011.2 |
| 20260506031117 | 20 | 149 | 3.2 | 9.7 | 0.00 | 0.00 | 0.00 | 66 | 1011.2 |
| 20260506030003 | 20 | 142 | 1.6 | 17.7 | 0.00 | 0.00 | 0.00 | 65 | 1011.3 |
| 20260506025403 | 20 | 138 | 1.6 | 9.7 | 0.00 | 0.00 | 0.00 | 65 | 1011.2 |
| 20260506024503 | 20 | 151 | 1.6 | 8.0 | 0.00 | 0.00 | 0.00 | 64 | 1011.3 |
| 20260506023603 | 20 | 157 | 3.2 | 9.7 | 0.00 | 0.00 | 0.00 | 62 | 1011.3 |
| 20260506022703 | 20 | 150 | 3.2 | 12.9 | 0.00 | 0.00 | 0.00 | 61 | 1011.4 |
| 20260506022017 | 21 | 164 | 3.2 | 12.9 | 0.00 | 0.00 | 0.00 | 60 | 1011.3 |
| 20260506021116 | 21 | 139 | 3.2 | 16.1 | 0.00 | 0.00 | 0.00 | 58 | 1011.2 |
| 20260506020215 | 21 | 0 | 0.0 | 0.0 | 0.00 | 0.00 | 0.00 | 57 | 1011.2 |
| 20260506015403 | 21 | 0 | 0.0 | 0.0 | 0.00 | 0.00 | 0.00 | 56 | 1011.1 |
| 20260506014503 | 21 | 0 | 0.0 | 0.0 | 0.00 | 0.00 | 0.00 | 54 | 1011.1 |
| 20260506013603 | 22 | 0 | 0.0 | 0.0 | 0.00 | 0.00 | 0.00 | 54 | 1011.0 |
| 20260506012703 | 22 | 0 | 0.0 | 0.0 | 0.00 | 0.00 | 0.00 | 52 | 1010.8 |
| 20260506012016 | 22 | 0 | 0.0 | 0.0 | 0.00 | 0.00 | 0.00 | 52 | 1010.8 |
| 20260506010903 | 22 | 0 | 0.0 | 0.0 | 0.00 | 0.00 | 0.00 | 51 | 1010.7 |
| 20260506010003 | 22 | 323 | 0.0 | 3.2 | 0.00 | 0.00 | 0.00 | 49 | 1010.7 |
| 20260506005619 | 22 | 148 | 1.6 | 14.5 | 0.00 | 0.00 | 0.00 | 49 | 1010.5 |
| 20260506004503 | 23 | 131 | 4.8 | 16.1 | 0.00 | 0.00 | 0.00 | 48 | 1010.4 |
| 20260506003603 | 23 | 123 | 3.2 | 9.7 | 0.00 | 0.00 | 0.00 | 48 | 1010.5 |
| 20260506002703 | 23 | 131 | 3.2 | 17.7 | 0.00 | 0.00 | 0.00 | 47 | 1010.4 |
| 20260506002016 | 23 | 127 | 3.2 | 11.3 | 0.00 | 0.00 | 0.00 | 46 | 1010.2 |
| 20260506000903 | 23 | 146 | 4.8 | 16.1 | 0.00 | 0.00 | 0.00 | 45 | 1010.2 |